sensor_id;sensor_type;location;lat;lon;timestamp;pressure;altitude;pressure_sealevel;temperature;humidity
9281;BME280;4679;47.966;7.958;2023-02-16T00:01:22;98241.00;;;1.51;70.35
9281;BME280;4679;47.966;7.958;2023-02-16T00:03:24;98225.75;;;1.47;71.12
9281;BME280;4679;47.966;7.958;2023-02-16T00:05:28;98221.53;;;1.54;71.05
9281;BME280;4679;47.966;7.958;2023-02-16T00:07:30;98222.38;;;1.62;71.01
9281;BME280;4679;47.966;7.958;2023-02-16T00:09:31;98227.28;;;1.65;70.48
9281;BME280;4679;47.966;7.958;2023-02-16T00:11:34;98217.63;;;1.58;70.80
9281;BME280;4679;47.966;7.958;2023-02-16T00:13:53;98218.91;;;1.46;70.61
9281;BME280;4679;47.966;7.958;2023-02-16T00:15:54;98221.50;;;1.46;70.77
9281;BME280;4679;47.966;7.958;2023-02-16T00:17:58;98207.78;;;1.44;70.75
9281;BME280;4679;47.966;7.958;2023-02-16T00:20:05;98227.69;;;1.36;71.23
9281;BME280;4679;47.966;7.958;2023-02-16T00:22:08;98228.53;;;1.37;70.88
9281;BME280;4679;47.966;7.958;2023-02-16T00:24:10;98218.38;;;1.42;71.44
9281;BME280;4679;47.966;7.958;2023-02-16T00:26:14;98222.34;;;1.54;71.40
9281;BME280;4679;47.966;7.958;2023-02-16T00:28:18;98210.13;;;1.63;70.80
9281;BME280;4679;47.966;7.958;2023-02-16T00:30:21;98211.75;;;1.64;70.77
9281;BME280;4679;47.966;7.958;2023-02-16T00:32:23;98225.31;;;1.59;70.75
9281;BME280;4679;47.966;7.958;2023-02-16T00:34:28;98207.63;;;1.53;70.83
9281;BME280;4679;47.966;7.958;2023-02-16T00:36:30;98207.00;;;1.59;70.93
9281;BME280;4679;47.966;7.958;2023-02-16T00:38:33;98204.56;;;1.66;70.57
9281;BME280;4679;47.966;7.958;2023-02-16T00:40:35;98210.31;;;1.77;71.08
9281;BME280;4679;47.966;7.958;2023-02-16T00:42:37;98200.16;;;1.74;70.44
9281;BME280;4679;47.966;7.958;2023-02-16T00:44:40;98207.66;;;1.69;70.67
9281;BME280;4679;47.966;7.958;2023-02-16T00:46:43;98200.78;;;1.68;71.13
9281;BME280;4679;47.966;7.958;2023-02-16T00:48:45;98212.06;;;1.69;70.40
9281;BME280;4679;47.966;7.958;2023-02-16T00:50:47;98203.59;;;1.67;70.71
9281;BME280;4679;47.966;7.958;2023-02-16T00:52:49;98215.19;;;1.72;70.90
9281;BME280;4679;47.966;7.958;2023-02-16T00:54:52;98206.84;;;1.69;70.76
9281;BME280;4679;47.966;7.958;2023-02-16T00:56:54;98208.97;;;1.65;71.36
9281;BME280;4679;47.966;7.958;2023-02-16T00:59:17;98199.00;;;1.61;70.78
9281;BME280;4679;47.966;7.958;2023-02-16T01:01:23;98203.25;;;1.70;71.46
9281;BME280;4679;47.966;7.958;2023-02-16T01:03:27;98193.75;;;1.69;71.32
9281;BME280;4679;47.966;7.958;2023-02-16T01:05:29;98186.28;;;1.82;70.82
9281;BME280;4679;47.966;7.958;2023-02-16T01:07:31;98196.75;;;2.06;70.72
9281;BME280;4679;47.966;7.958;2023-02-16T01:09:50;98201.69;;;2.09;70.22
9281;BME280;4679;47.966;7.958;2023-02-16T01:12:12;98193.34;;;2.06;70.32
9281;BME280;4679;47.966;7.958;2023-02-16T01:14:15;98191.53;;;1.98;70.87
9281;BME280;4679;47.966;7.958;2023-02-16T01:16:18;98191.88;;;1.95;70.53
9281;BME280;4679;47.966;7.958;2023-02-16T01:18:21;98189.91;;;1.97;71.45
9281;BME280;4679;47.966;7.958;2023-02-16T01:20:24;98189.38;;;1.86;71.60
9281;BME280;4679;47.966;7.958;2023-02-16T01:22:26;98184.97;;;1.78;70.80
9281;BME280;4679;47.966;7.958;2023-02-16T01:24:32;98186.28;;;1.82;71.02
9281;BME280;4679;47.966;7.958;2023-02-16T01:26:37;98182.22;;;1.96;71.49
9281;BME280;4679;47.966;7.958;2023-02-16T01:28:41;98180.41;;;2.04;70.98
9281;BME280;4679;47.966;7.958;2023-02-16T01:30:43;98179.75;;;2.02;71.45
9281;BME280;4679;47.966;7.958;2023-02-16T01:32:45;98181.72;;;1.92;71.40
9281;BME280;4679;47.966;7.958;2023-02-16T01:34:50;98180.22;;;1.90;71.02
9281;BME280;4679;47.966;7.958;2023-02-16T01:36:52;98174.19;;;1.97;71.75
9281;BME280;4679;47.966;7.958;2023-02-16T01:38:54;98176.63;;;2.15;71.34
9281;BME280;4679;47.966;7.958;2023-02-16T01:41:03;98182.69;;;2.16;71.14
9281;BME280;4679;47.966;7.958;2023-02-16T01:43:14;98175.19;;;2.13;71.39
9281;BME280;4679;47.966;7.958;2023-02-16T01:45:27;98178.75;;;2.03;71.80
9281;BME280;4679;47.966;7.958;2023-02-16T01:47:36;98178.94;;;2.10;71.72
9281;BME280;4679;47.966;7.958;2023-02-16T01:49:38;98176.66;;;2.23;71.07
9281;BME280;4679;47.966;7.958;2023-02-16T01:51:48;98172.88;;;2.18;71.11
9281;BME280;4679;47.966;7.958;2023-02-16T01:53:54;98178.94;;;2.10;71.39
9281;BME280;4679;47.966;7.958;2023-02-16T01:56:01;98179.75;;;2.02;71.71
9281;BME280;4679;47.966;7.958;2023-02-16T01:58:06;98171.91;;;2.02;71.33
9281;BME280;4679;47.966;7.958;2023-02-16T02:00:16;98168.16;;;2.13;71.88
9281;BME280;4679;47.966;7.958;2023-02-16T02:02:19;98174.84;;;2.07;71.18
9281;BME280;4679;47.966;7.958;2023-02-16T02:04:26;98168.47;;;2.02;72.29
9281;BME280;4679;47.966;7.958;2023-02-16T02:06:46;98175.19;;;1.96;72.26
9281;BME280;4679;47.966;7.958;2023-02-16T02:08:54;98169.28;;;1.94;72.08
9281;BME280;4679;47.966;7.958;2023-02-16T02:11:06;98168.78;;;1.91;71.98
9281;BME280;4679;47.966;7.958;2023-02-16T02:13:14;98164.38;;;1.83;72.42
9281;BME280;4679;47.966;7.958;2023-02-16T02:15:22;98164.69;;;1.80;72.09
9281;BME280;4679;47.966;7.958;2023-02-16T02:17:26;98171.03;;;1.69;72.46
9281;BME280;4679;47.966;7.958;2023-02-16T02:19:29;98161.56;;;1.60;72.81
9281;BME280;4679;47.966;7.958;2023-02-16T02:21:52;98167.75;;;1.51;73.03
9281;BME280;4679;47.966;7.958;2023-02-16T02:24:49;98163.16;;;1.45;72.71
9281;BME280;4679;47.966;7.958;2023-02-16T02:27:10;98164.19;;;1.52;73.20
9281;BME280;4679;47.966;7.958;2023-02-16T02:29:25;98167.72;;;1.43;73.04
9281;BME280;4679;47.966;7.958;2023-02-16T02:31:42;98173.13;;;1.41;73.13
9281;BME280;4679;47.966;7.958;2023-02-16T02:33:53;98172.59;;;1.38;73.11
9281;BME280;4679;47.966;7.958;2023-02-16T02:36:08;98166.41;;;1.39;72.98
9281;BME280;4679;47.966;7.958;2023-02-16T02:38:16;98169.22;;;1.46;73.55
9281;BME280;4679;47.966;7.958;2023-02-16T02:40:29;98163.97;;;1.46;72.75
9281;BME280;4679;47.966;7.958;2023-02-16T02:42:40;98169.03;;;1.39;73.64
9281;BME280;4679;47.966;7.958;2023-02-16T02:44:47;98169.84;;;1.39;73.43
9281;BME280;4679;47.966;7.958;2023-02-16T02:46:50;98167.72;;;1.35;73.44
9281;BME280;4679;47.966;7.958;2023-02-16T02:48:52;98171.31;;;1.34;73.50
9281;BME280;4679;47.966;7.958;2023-02-16T02:50:56;98168.03;;;1.32;73.37
9281;BME280;4679;47.966;7.958;2023-02-16T02:53:16;98167.53;;;1.28;73.84
9281;BME280;4679;47.966;7.958;2023-02-16T02:55:18;98174.19;;;1.23;73.71
9281;BME280;4679;47.966;7.958;2023-02-16T02:57:40;98174.69;;;1.18;73.91
9281;BME280;4679;47.966;7.958;2023-02-16T03:00:05;98168.66;;;1.18;74.06
9281;BME280;4679;47.966;7.958;2023-02-16T03:02:26;98165.06;;;1.27;73.35
9281;BME280;4679;47.966;7.958;2023-02-16T03:04:29;98171.78;;;1.21;73.80
9281;BME280;4679;47.966;7.958;2023-02-16T03:06:35;98171.78;;;1.29;73.96
9281;BME280;4679;47.966;7.958;2023-02-16T03:08:40;98168.84;;;1.32;73.69
9281;BME280;4679;47.966;7.958;2023-02-16T03:10:47;98172.75;;;1.28;73.32
9281;BME280;4679;47.966;7.958;2023-02-16T03:13:23;98162.16;;;1.30;74.08
9281;BME280;4679;47.966;7.958;2023-02-16T03:15:26;98157.22;;;1.27;73.50
9281;BME280;4679;47.966;7.958;2023-02-16T03:17:32;98163.13;;;1.29;73.53
9281;BME280;4679;47.966;7.958;2023-02-16T03:19:52;98159.53;;;1.30;73.57
9281;BME280;4679;47.966;7.958;2023-02-16T03:22:11;98163.94;;;1.29;74.04
9281;BME280;4679;47.966;7.958;2023-02-16T03:24:31;98154.81;;;1.33;73.93
9281;BME280;4679;47.966;7.958;2023-02-16T03:26:52;98145.16;;;1.34;73.94
9281;BME280;4679;47.966;7.958;2023-02-16T03:29:14;98160.75;;;1.52;73.55
9281;BME280;4679;47.966;7.958;2023-02-16T03:31:20;98159.75;;;1.53;73.71
9281;BME280;4679;47.966;7.958;2023-02-16T03:33:24;98152.09;;;1.67;73.52
9281;BME280;4679;47.966;7.958;2023-02-16T03:35:27;98158.94;;;1.68;73.66
9281;BME280;4679;47.966;7.958;2023-02-16T03:37:29;98157.63;;;1.56;73.68
9281;BME280;4679;47.966;7.958;2023-02-16T03:39:31;98156.66;;;1.49;73.56
9281;BME280;4679;47.966;7.958;2023-02-16T03:41:55;98171.47;;;1.40;74.11
9281;BME280;4679;47.966;7.958;2023-02-16T03:43:57;98166.75;;;1.36;73.71
9281;BME280;4679;47.966;7.958;2023-02-16T03:46:00;98167.38;;;1.30;73.91
9281;BME280;4679;47.966;7.958;2023-02-16T03:48:02;98166.72;;;1.28;74.22
9281;BME280;4679;47.966;7.958;2023-02-16T03:50:05;98172.09;;;1.18;74.24
9281;BME280;4679;47.966;7.958;2023-02-16T03:52:07;98156.41;;;1.18;74.11
9281;BME280;4679;47.966;7.958;2023-02-16T03:54:09;98170.81;;;1.30;74.41
9281;BME280;4679;47.966;7.958;2023-02-16T03:56:10;98173.41;;;1.30;73.99
9281;BME280;4679;47.966;7.958;2023-02-16T03:58:14;98169.97;;;1.22;74.14
9281;BME280;4679;47.966;7.958;2023-02-16T04:00:17;98171.78;;;1.21;74.51
9281;BME280;4679;47.966;7.958;2023-02-16T04:02:20;98177.31;;;1.18;74.84
9281;BME280;4679;47.966;7.958;2023-02-16T04:04:22;98168.13;;;1.06;74.42
9281;BME280;4679;47.966;7.958;2023-02-16T04:06:24;98168.13;;;1.06;74.30
9281;BME280;4679;47.966;7.958;2023-02-16T04:08:25;98165.31;;;1.08;74.37
9281;BME280;4679;47.966;7.958;2023-02-16T04:10:27;98166.97;;;1.09;74.43
9281;BME280;4679;47.966;7.958;2023-02-16T04:12:29;98168.59;;;1.10;74.54
9281;BME280;4679;47.966;7.958;2023-02-16T04:14:35;98166.66;;;1.12;74.41
9281;BME280;4679;47.966;7.958;2023-02-16T04:16:37;98161.47;;;1.28;74.60
9281;BME280;4679;47.966;7.958;2023-02-16T04:18:40;98170.00;;;1.30;74.47
9281;BME280;4679;47.966;7.958;2023-02-16T04:20:42;98162.75;;;1.16;74.82
9281;BME280;4679;47.966;7.958;2023-02-16T04:22:44;98166.31;;;1.07;74.77
9281;BME280;4679;47.966;7.958;2023-02-16T04:24:46;98163.72;;;1.07;75.01
9281;BME280;4679;47.966;7.958;2023-02-16T04:26:47;98165.00;;;1.11;75.19
9281;BME280;4679;47.966;7.958;2023-02-16T04:28:49;98172.91;;;1.19;74.42
9281;BME280;4679;47.966;7.958;2023-02-16T04:30:51;98171.88;;;1.12;74.42
9281;BME280;4679;47.966;7.958;2023-02-16T04:32:53;98176.94;;;1.13;74.99
9281;BME280;4679;47.966;7.958;2023-02-16T04:34:56;98181.81;;;1.08;74.89
9281;BME280;4679;47.966;7.958;2023-02-16T04:36:58;98179.19;;;1.00;75.23
9281;BME280;4679;47.966;7.958;2023-02-16T04:39:01;98178.34;;;0.91;75.43
9281;BME280;4679;47.966;7.958;2023-02-16T04:41:03;98173.91;;;0.92;75.26
9281;BME280;4679;47.966;7.958;2023-02-16T04:43:05;98174.56;;;0.86;75.07
9281;BME280;4679;47.966;7.958;2023-02-16T04:45:08;98179.25;;;0.74;75.64
9281;BME280;4679;47.966;7.958;2023-02-16T04:47:10;98172.72;;;0.78;75.17
9281;BME280;4679;47.966;7.958;2023-02-16T04:49:12;98172.31;;;0.99;74.99
9281;BME280;4679;47.966;7.958;2023-02-16T04:51:15;98179.50;;;0.97;75.02
9281;BME280;4679;47.966;7.958;2023-02-16T04:53:16;98183.22;;;0.86;75.04
9281;BME280;4679;47.966;7.958;2023-02-16T04:55:18;98179.78;;;0.86;74.99
9281;BME280;4679;47.966;7.958;2023-02-16T04:57:20;98179.78;;;0.86;75.03
9281;BME280;4679;47.966;7.958;2023-02-16T04:59:23;98187.91;;;0.83;75.59
9281;BME280;4679;47.966;7.958;2023-02-16T05:01:26;98179.72;;;0.78;75.72
9281;BME280;4679;47.966;7.958;2023-02-16T05:03:28;98178.34;;;0.91;75.23
9281;BME280;4679;47.966;7.958;2023-02-16T05:05:30;98174.63;;;1.02;74.98
9281;BME280;4679;47.966;7.958;2023-02-16T05:07:34;98189.34;;;1.03;75.00
9281;BME280;4679;47.966;7.958;2023-02-16T05:09:36;98181.59;;;0.93;75.06
9281;BME280;4679;47.966;7.958;2023-02-16T05:11:37;98192.31;;;0.82;75.48
9281;BME280;4679;47.966;7.958;2023-02-16T05:13:57;98180.59;;;0.86;75.78
9281;BME280;4679;47.966;7.958;2023-02-16T05:16:18;98181.75;;;0.92;75.40
9281;BME280;4679;47.966;7.958;2023-02-16T05:18:20;98188.28;;;0.88;75.59
9281;BME280;4679;47.966;7.958;2023-02-16T05:20:22;98188.13;;;0.89;75.29
9281;BME280;4679;47.966;7.958;2023-02-16T05:22:46;98189.94;;;0.97;75.21
9281;BME280;4679;47.966;7.958;2023-02-16T05:24:48;98181.75;;;0.92;75.13
9281;BME280;4679;47.966;7.958;2023-02-16T05:26:49;98183.56;;;0.91;75.10
9281;BME280;4679;47.966;7.958;2023-02-16T05:28:51;98182.91;;;0.89;75.22
9281;BME280;4679;47.966;7.958;2023-02-16T05:30:53;98176.81;;;0.81;75.59
9281;BME280;4679;47.966;7.958;2023-02-16T05:32:55;98175.69;;;0.83;75.59
9281;BME280;4679;47.966;7.958;2023-02-16T05:34:56;98181.88;;;0.82;75.62
9281;BME280;4679;47.966;7.958;2023-02-16T05:36:58;98190.13;;;0.69;75.78
9281;BME280;4679;47.966;7.958;2023-02-16T05:39:01;98183.66;;;0.74;75.46
9281;BME280;4679;47.966;7.958;2023-02-16T05:41:03;98187.22;;;0.73;75.58
9281;BME280;4679;47.966;7.958;2023-02-16T05:43:05;98187.53;;;0.69;75.90
9281;BME280;4679;47.966;7.958;2023-02-16T05:45:07;98192.09;;;0.67;75.88
9281;BME280;4679;47.966;7.958;2023-02-16T05:47:09;98190.97;;;0.70;75.47
9281;BME280;4679;47.966;7.958;2023-02-16T05:49:11;98192.84;;;0.86;75.69
9281;BME280;4679;47.966;7.958;2023-02-16T05:51:13;98200.31;;;0.81;75.49
9281;BME280;4679;47.966;7.958;2023-02-16T05:53:15;98199.16;;;0.75;75.86
9281;BME280;4679;47.966;7.958;2023-02-16T05:55:18;98200.00;;;0.84;75.85
9281;BME280;4679;47.966;7.958;2023-02-16T05:57:19;98196.97;;;0.96;75.18
9281;BME280;4679;47.966;7.958;2023-02-16T05:59:21;98196.44;;;0.93;75.68
9281;BME280;4679;47.966;7.958;2023-02-16T06:01:23;98197.25;;;0.85;75.68
9281;BME280;4679;47.966;7.958;2023-02-16T06:03:25;98194.41;;;0.79;75.71
9281;BME280;4679;47.966;7.958;2023-02-16T06:05:26;98195.06;;;0.73;75.24
9281;BME280;4679;47.966;7.958;2023-02-16T06:07:28;98194.25;;;0.72;75.53
9281;BME280;4679;47.966;7.958;2023-02-16T06:09:30;98191.72;;;0.62;76.07
9281;BME280;4679;47.966;7.958;2023-02-16T06:11:33;98199.72;;;0.61;75.96
9281;BME280;4679;47.966;7.958;2023-02-16T06:13:37;98212.13;;;0.59;76.07
9281;BME280;4679;47.966;7.958;2023-02-16T06:15:39;98209.34;;;0.60;75.73
9281;BME280;4679;47.966;7.958;2023-02-16T06:17:41;98211.47;;;0.65;75.64
9281;BME280;4679;47.966;7.958;2023-02-16T06:19:43;98212.47;;;0.64;75.82
9281;BME280;4679;47.966;7.958;2023-02-16T06:21:45;98223.00;;;0.54;75.84
9281;BME280;4679;47.966;7.958;2023-02-16T06:23:47;98221.81;;;0.49;75.79
9281;BME280;4679;47.966;7.958;2023-02-16T06:25:50;98224.44;;;0.49;75.76
9281;BME280;4679;47.966;7.958;2023-02-16T06:27:53;98223.63;;;0.48;76.03
9281;BME280;4679;47.966;7.958;2023-02-16T06:29:56;98221.00;;;0.48;76.07
9281;BME280;4679;47.966;7.958;2023-02-16T06:31:57;98224.38;;;0.41;76.13
9281;BME280;4679;47.966;7.958;2023-02-16T06:33:59;98227.53;;;0.44;76.08
9281;BME280;4679;47.966;7.958;2023-02-16T06:36:04;98222.78;;;0.48;76.12
9281;BME280;4679;47.966;7.958;2023-02-16T06:38:05;98220.28;;;0.38;76.19
9281;BME280;4679;47.966;7.958;2023-02-16T06:40:08;98219.47;;;0.38;76.05
9281;BME280;4679;47.966;7.958;2023-02-16T06:42:10;98229.91;;;0.38;76.27
9281;BME280;4679;47.966;7.958;2023-02-16T06:44:15;98229.91;;;0.38;76.35
9281;BME280;4679;47.966;7.958;2023-02-16T06:46:17;98238.19;;;0.33;76.09
9281;BME280;4679;47.966;7.958;2023-02-16T06:48:18;98239.31;;;0.30;76.38
9281;BME280;4679;47.966;7.958;2023-02-16T06:50:20;98235.91;;;0.30;76.25
9281;BME280;4679;47.966;7.958;2023-02-16T06:52:22;98238.31;;;0.31;76.32
9281;BME280;4679;47.966;7.958;2023-02-16T06:54:23;98234.91;;;0.31;76.50
9281;BME280;4679;47.966;7.958;2023-02-16T06:56:25;98238.03;;;0.34;76.32
9281;BME280;4679;47.966;7.958;2023-02-16T06:58:27;98237.88;;;0.36;75.93
9281;BME280;4679;47.966;7.958;2023-02-16T07:00:30;98249.28;;;0.35;76.17
9281;BME280;4679;47.966;7.958;2023-02-16T07:02:32;98244.22;;;0.33;76.22
9281;BME280;4679;47.966;7.958;2023-02-16T07:04:35;98239.81;;;0.34;76.36
9281;BME280;4679;47.966;7.958;2023-02-16T07:06:36;98239.69;;;0.35;76.40
9281;BME280;4679;47.966;7.958;2023-02-16T07:08:38;98240.78;;;0.33;76.37
9281;BME280;4679;47.966;7.958;2023-02-16T07:10:41;98237.88;;;0.36;75.99
9281;BME280;4679;47.966;7.958;2023-02-16T07:12:44;98229.09;;;0.37;76.38
9281;BME280;4679;47.966;7.958;2023-02-16T07:14:46;98230.72;;;0.38;76.27
9281;BME280;4679;47.966;7.958;2023-02-16T07:16:49;98240.06;;;0.41;76.15
9281;BME280;4679;47.966;7.958;2023-02-16T07:18:50;98242.66;;;0.41;75.73
9281;BME280;4679;47.966;7.958;2023-02-16T07:20:52;98249.03;;;0.46;76.48
9281;BME280;4679;47.966;7.958;2023-02-16T07:22:54;98248.91;;;0.48;76.19
9281;BME280;4679;47.966;7.958;2023-02-16T07:24:55;98248.31;;;0.54;76.12
9281;BME280;4679;47.966;7.958;2023-02-16T07:26:58;98242.00;;;0.64;76.21
9281;BME280;4679;47.966;7.958;2023-02-16T07:28:59;98245.34;;;0.75;75.94
9281;BME280;4679;47.966;7.958;2023-02-16T07:31:05;98252.22;;;0.76;76.04
9281;BME280;4679;47.966;7.958;2023-02-16T07:33:08;98253.53;;;0.80;75.48
9281;BME280;4679;47.966;7.958;2023-02-16T07:35:10;98255.84;;;0.83;75.94
9281;BME280;4679;47.966;7.958;2023-02-16T07:37:12;98256.06;;;0.89;75.62
9281;BME280;4679;47.966;7.958;2023-02-16T07:39:13;98247.50;;;1.05;75.53
9281;BME280;4679;47.966;7.958;2023-02-16T07:41:15;98256.03;;;1.15;75.14
9281;BME280;4679;47.966;7.958;2023-02-16T07:43:17;98259.97;;;1.19;75.61
9281;BME280;4679;47.966;7.958;2023-02-16T07:45:19;98268.19;;;1.32;75.46
9281;BME280;4679;47.966;7.958;2023-02-16T07:47:20;98265.97;;;1.46;74.86
9281;BME280;4679;47.966;7.958;2023-02-16T07:49:23;98263.06;;;1.57;74.82
9281;BME280;4679;47.966;7.958;2023-02-16T07:51:27;98259.81;;;1.63;74.78
9281;BME280;4679;47.966;7.958;2023-02-16T07:53:30;98257.41;;;1.86;74.80
9281;BME280;4679;47.966;7.958;2023-02-16T07:55:31;98268.72;;;2.02;74.35
9281;BME280;4679;47.966;7.958;2023-02-16T07:57:33;98280.06;;;2.11;74.77
9281;BME280;4679;47.966;7.958;2023-02-16T07:59:35;98268.78;;;2.27;74.25
9281;BME280;4679;47.966;7.958;2023-02-16T08:01:36;98271.41;;;2.59;73.66
9281;BME280;4679;47.966;7.958;2023-02-16T08:03:39;98274.84;;;2.68;73.56
9281;BME280;4679;47.966;7.958;2023-02-16T08:05:42;98273.00;;;2.76;73.60
9281;BME280;4679;47.966;7.958;2023-02-16T08:07:44;98272.03;;;2.86;73.12
9281;BME280;4679;47.966;7.958;2023-02-16T08:09:47;98267.44;;;2.88;73.51
9281;BME280;4679;47.966;7.958;2023-02-16T08:11:49;98275.78;;;2.99;73.56
9281;BME280;4679;47.966;7.958;2023-02-16T08:13:51;98265.59;;;3.12;72.99
9281;BME280;4679;47.966;7.958;2023-02-16T08:15:52;98268.69;;;3.16;72.75
9281;BME280;4679;47.966;7.958;2023-02-16T08:17:54;98261.59;;;3.33;72.19
9281;BME280;4679;47.966;7.958;2023-02-16T08:19:55;98262.69;;;3.46;72.63
9281;BME280;4679;47.966;7.958;2023-02-16T08:21:59;98270.22;;;3.49;72.32
9281;BME280;4679;47.966;7.958;2023-02-16T08:24:04;98267.72;;;3.56;72.14
9281;BME280;4679;47.966;7.958;2023-02-16T08:26:07;98273.78;;;3.65;71.83
9281;BME280;4679;47.966;7.958;2023-02-16T08:28:09;98268.47;;;3.73;71.95
9281;BME280;4679;47.966;7.958;2023-02-16T08:30:14;98267.75;;;3.87;71.55
9281;BME280;4679;47.966;7.958;2023-02-16T08:32:18;98267.31;;;4.06;71.60
9281;BME280;4679;47.966;7.958;2023-02-16T08:34:20;98262.88;;;4.30;71.34
9281;BME280;4679;47.966;7.958;2023-02-16T08:36:24;98261.75;;;4.47;70.59
9281;BME280;4679;47.966;7.958;2023-02-16T08:38:30;98246.84;;;4.62;70.63
9281;BME280;4679;47.966;7.958;2023-02-16T08:40:33;98243.41;;;4.76;70.71
9281;BME280;4679;47.966;7.958;2023-02-16T08:42:35;98242.00;;;4.88;70.10
9281;BME280;4679;47.966;7.958;2023-02-16T08:44:38;98246.81;;;5.00;69.91
9281;BME280;4679;47.966;7.958;2023-02-16T08:46:42;98238.59;;;5.17;69.62
9281;BME280;4679;47.966;7.958;2023-02-16T08:48:44;98241.38;;;5.45;69.08
9281;BME280;4679;47.966;7.958;2023-02-16T08:50:47;98233.16;;;5.70;68.43
9281;BME280;4679;47.966;7.958;2023-02-16T08:52:52;98237.16;;;5.80;69.14
9281;BME280;4679;47.966;7.958;2023-02-16T08:54:55;98237.06;;;5.88;68.21
9281;BME280;4679;47.966;7.958;2023-02-16T08:56:58;98235.94;;;5.97;68.64
9281;BME280;4679;47.966;7.958;2023-02-16T08:59:02;98242.88;;;6.20;68.75
9281;BME280;4679;47.966;7.958;2023-02-16T09:01:04;98244.06;;;6.39;66.99
9281;BME280;4679;47.966;7.958;2023-02-16T09:03:07;98237.91;;;6.53;66.75
9281;BME280;4679;47.966;7.958;2023-02-16T09:05:09;98249.94;;;6.62;66.87
9281;BME280;4679;47.966;7.958;2023-02-16T09:07:11;98247.91;;;6.64;67.72
9281;BME280;4679;47.966;7.958;2023-02-16T09:09:13;98243.53;;;6.71;67.63
9281;BME280;4679;47.966;7.958;2023-02-16T09:11:17;98244.47;;;6.91;66.30
9281;BME280;4679;47.966;7.958;2023-02-16T09:13:18;98243.56;;;7.05;66.79
9281;BME280;4679;47.966;7.958;2023-02-16T09:15:21;98246.56;;;7.30;66.35
9281;BME280;4679;47.966;7.958;2023-02-16T09:17:23;98237.09;;;7.49;65.83
9281;BME280;4679;47.966;7.958;2023-02-16T09:19:26;98243.28;;;7.63;65.01
9281;BME280;4679;47.966;7.958;2023-02-16T09:21:29;98244.09;;;7.70;64.96
9281;BME280;4679;47.966;7.958;2023-02-16T09:23:33;98249.00;;;7.73;65.05
9281;BME280;4679;47.966;7.958;2023-02-16T09:25:37;98252.28;;;7.82;65.50
9281;BME280;4679;47.966;7.958;2023-02-16T09:27:40;98248.66;;;7.96;64.68
9281;BME280;4679;47.966;7.958;2023-02-16T09:29:43;98248.28;;;8.05;64.67
9281;BME280;4679;47.966;7.958;2023-02-16T09:31:45;98251.03;;;8.32;64.24
9281;BME280;4679;47.966;7.958;2023-02-16T09:33:47;98252.69;;;8.53;64.04
9281;BME280;4679;47.966;7.958;2023-02-16T09:35:48;98255.13;;;8.74;63.41
9281;BME280;4679;47.966;7.958;2023-02-16T09:37:50;98243.53;;;8.75;63.31
9281;BME280;4679;47.966;7.958;2023-02-16T09:39:51;98245.16;;;8.76;63.28
9281;BME280;4679;47.966;7.958;2023-02-16T09:42:02;98240.25;;;8.93;63.00
9281;BME280;4679;47.966;7.958;2023-02-16T09:44:14;98249.19;;;9.11;62.88
9281;BME280;4679;47.966;7.958;2023-02-16T09:46:22;98243.69;;;9.26;62.47
9281;BME280;4679;47.966;7.958;2023-02-16T09:48:32;98239.75;;;9.42;62.00
9281;BME280;4679;47.966;7.958;2023-02-16T09:50:35;98237.88;;;9.62;61.91
9281;BME280;4679;47.966;7.958;2023-02-16T09:52:40;98233.13;;;9.77;61.75
9281;BME280;4679;47.966;7.958;2023-02-16T09:54:46;98226.75;;;9.92;61.48
9281;BME280;4679;47.966;7.958;2023-02-16T09:56:53;98231.97;;;10.05;61.79
9281;BME280;4679;47.966;7.958;2023-02-16T09:59:01;98231.06;;;10.17;60.75
9281;BME280;4679;47.966;7.958;2023-02-16T10:01:14;98233.03;;;10.35;60.53
9281;BME280;4679;47.966;7.958;2023-02-16T10:03:29;98230.47;;;10.53;60.40
9281;BME280;4679;47.966;7.958;2023-02-16T10:05:44;98235.50;;;10.62;60.16
9281;BME280;4679;47.966;7.958;2023-02-16T10:07:56;98226.47;;;10.69;60.01
9281;BME280;4679;47.966;7.958;2023-02-16T10:10:00;98230.38;;;10.85;59.67
9281;BME280;4679;47.966;7.958;2023-02-16T10:12:06;98230.28;;;10.98;59.27
9281;BME280;4679;47.966;7.958;2023-02-16T10:14:16;98230.38;;;11.10;58.56
9281;BME280;4679;47.966;7.958;2023-02-16T10:16:26;98238.28;;;11.16;57.85
9281;BME280;4679;47.966;7.958;2023-02-16T10:18:32;98237.63;;;11.39;57.69
9281;BME280;4679;47.966;7.958;2023-02-16T10:20:37;98246.34;;;11.46;58.03
9281;BME280;4679;47.966;7.958;2023-02-16T10:22:43;98238.31;;;11.53;57.91
9281;BME280;4679;47.966;7.958;2023-02-16T10:24:55;98231.66;;;11.62;57.01
9281;BME280;4679;47.966;7.958;2023-02-16T10:27:02;98227.88;;;11.70;56.89
9281;BME280;4679;47.966;7.958;2023-02-16T10:29:10;98237.94;;;11.86;56.74
9281;BME280;4679;47.966;7.958;2023-02-16T10:31:21;98230.13;;;11.91;57.00
9281;BME280;4679;47.966;7.958;2023-02-16T10:33:35;98232.44;;;11.99;55.77
9281;BME280;4679;47.966;7.958;2023-02-16T10:35:44;98226.25;;;12.05;55.44
9281;BME280;4679;47.966;7.958;2023-02-16T10:37:56;98230.19;;;12.14;55.98
9281;BME280;4679;47.966;7.958;2023-02-16T10:40:13;98225.38;;;12.23;55.55
9281;BME280;4679;47.966;7.958;2023-02-16T10:42:24;98226.69;;;12.32;55.14
9281;BME280;4679;47.966;7.958;2023-02-16T10:44:33;98227.50;;;12.44;54.75
9281;BME280;4679;47.966;7.958;2023-02-16T10:46:41;98228.78;;;12.53;54.28
9281;BME280;4679;47.966;7.958;2023-02-16T10:48:44;98228.72;;;12.60;53.70
9281;BME280;4679;47.966;7.958;2023-02-16T10:50:52;98226.84;;;12.60;53.91
9281;BME280;4679;47.966;7.958;2023-02-16T10:52:59;98223.03;;;12.68;53.44
9281;BME280;4679;47.966;7.958;2023-02-16T10:55:02;98225.97;;;12.78;53.54
9281;BME280;4679;47.966;7.958;2023-02-16T10:57:05;98222.72;;;12.88;53.28
9281;BME280;4679;47.966;7.958;2023-02-16T10:59:13;98221.56;;;12.95;52.74
9281;BME280;4679;47.966;7.958;2023-02-16T11:01:18;98203.84;;;13.01;52.44
9281;BME280;4679;47.966;7.958;2023-02-16T11:03:24;98210.09;;;13.07;52.44
9281;BME280;4679;47.966;7.958;2023-02-16T11:05:29;98200.03;;;13.09;52.52
9281;BME280;4679;47.966;7.958;2023-02-16T11:07:31;98199.69;;;13.17;51.83
9281;BME280;4679;47.966;7.958;2023-02-16T11:09:33;98197.38;;;13.20;51.83
9281;BME280;4679;47.966;7.958;2023-02-16T11:11:38;98205.59;;;13.19;51.38
9281;BME280;4679;47.966;7.958;2023-02-16T11:13:46;98206.66;;;13.18;51.09
9281;BME280;4679;47.966;7.958;2023-02-16T11:15:50;98203.97;;;13.29;50.89
9281;BME280;4679;47.966;7.958;2023-02-16T11:17:56;98196.66;;;13.36;50.42
9281;BME280;4679;47.966;7.958;2023-02-16T11:20:03;98200.09;;;13.49;50.24
9281;BME280;4679;47.966;7.958;2023-02-16T11:22:09;98190.22;;;13.61;49.81
9281;BME280;4679;47.966;7.958;2023-02-16T11:24:26;98186.16;;;13.70;49.71
9281;BME280;4679;47.966;7.958;2023-02-16T11:26:28;98188.59;;;13.71;49.57
9281;BME280;4679;47.966;7.958;2023-02-16T11:28:33;98187.03;;;13.87;49.05
9281;BME280;4679;47.966;7.958;2023-02-16T11:30:37;98179.78;;;13.99;49.09